CCA8901 ZYTL-ZBAA
Flight info
| Callsign | CCA8901 |
|---|---|
| Flight time | 0h 52m |
| Altitude | 30100 |
| Route | ORA19D ORAVA W201 UKDUM W49 OSUBA OSUBA6J |
| Aircraft | B738/M-SDE2E3FGHIRWXY/LB1 |
Departure
| Time | 2026-05-08 03:58 |
|---|---|
| Airport | Dalian Zhoushuizi International Airport (ZYTL) |
Arrival
| Time | 2026-05-08 04:50 |
|---|---|
| Airport | Beijing Capital International Airport (ZBAA) |
| Time | Latitude | Longitude | Altitude | Speed | Heading |
|---|---|---|---|---|---|
| 2026-05-08 03:41 | 38.96241 | 121.53992 | 101 ft | 0 kts | 182° |
| 2026-05-08 03:50 | 38.96253 | 121.53993 | 101 ft | 4 kts | 179° |
| 2026-05-08 03:51 | 38.96279 | 121.53988 | 101 ft | 4 kts | 145° |
| 2026-05-08 03:51 | 38.96290 | 121.53986 | 100 ft | 4 kts | 45° |
| 2026-05-08 03:51 | 38.96294 | 121.53987 | 100 ft | 1 kts | 12° |
| 2026-05-08 03:51 | 38.96292 | 121.53987 | 100 ft | 0 kts | 12° |
| 2026-05-08 03:54 | 38.96293 | 121.53987 | 102 ft | 1 kts | 12° |
| 2026-05-08 03:54 | 38.96347 | 121.53996 | 102 ft | 12 kts | 1° |
| 2026-05-08 03:55 | 38.96377 | 121.54076 | 102 ft | 11 kts | 93° |
| 2026-05-08 03:55 | 38.96369 | 121.54171 | 101 ft | 11 kts | 96° |
| 2026-05-08 03:55 | 38.96365 | 121.54271 | 101 ft | 12 kts | 93° |
| 2026-05-08 03:55 | 38.96351 | 121.54406 | 101 ft | 20 kts | 98° |
| 2026-05-08 03:56 | 38.96334 | 121.54642 | 100 ft | 32 kts | 95° |
| 2026-05-08 03:56 | 38.96308 | 121.54939 | 98 ft | 33 kts | 107° |
| 2026-05-08 03:56 | 38.96266 | 121.55220 | 98 ft | 31 kts | 96° |
| 2026-05-08 03:56 | 38.96246 | 121.55488 | 96 ft | 29 kts | 96° |
| 2026-05-08 03:57 | 38.96268 | 121.55711 | 95 ft | 22 kts | 15° |
| 2026-05-08 03:57 | 38.96358 | 121.55723 | 93 ft | 11 kts | 5° |
| 2026-05-08 03:57 | 38.96425 | 121.55695 | 92 ft | 11 kts | 294° |
| 2026-05-08 03:57 | 38.96435 | 121.55596 | 93 ft | 16 kts | 275° |
| 2026-05-08 03:58 | 38.96469 | 121.55154 | 98 ft | 85 kts | 275° |
| 2026-05-08 03:58 | 38.96550 | 121.54119 | 101 ft | 146 kts | 275° |
| 2026-05-08 03:58 | 38.96663 | 121.52653 | 396 ft | 173 kts | 277° |
| 2026-05-08 03:58 | 38.96774 | 121.51084 | 1158 ft | 178 kts | 279° |
| 2026-05-08 03:59 | 38.96889 | 121.49493 | 2014 ft | 184 kts | 281° |
| 2026-05-08 03:59 | 38.97026 | 121.47744 | 2423 ft | 209 kts | 281° |
| 2026-05-08 03:59 | 38.97219 | 121.45802 | 2851 ft | 223 kts | 281° |
| 2026-05-08 03:59 | 38.97375 | 121.43772 | 3465 ft | 230 kts | 279° |
| 2026-05-08 04:00 | 38.97534 | 121.41716 | 4210 ft | 232 kts | 279° |
| 2026-05-08 04:00 | 38.97739 | 121.39686 | 5108 ft | 231 kts | 288° |
| 2026-05-08 04:00 | 38.98516 | 121.37933 | 5952 ft | 226 kts | 318° |
| 2026-05-08 04:00 | 38.99867 | 121.36864 | 6776 ft | 227 kts | 340° |
| 2026-05-08 04:01 | 39.01438 | 121.36584 | 7557 ft | 232 kts | 0° |
| 2026-05-08 04:01 | 39.03057 | 121.36770 | 8359 ft | 236 kts | 1° |
| 2026-05-08 04:01 | 39.04645 | 121.37293 | 9079 ft | 248 kts | 24° |
| 2026-05-08 04:01 | 39.05948 | 121.38817 | 9825 ft | 265 kts | 50° |
| 2026-05-08 04:02 | 39.06612 | 121.41169 | 10126 ft | 301 kts | 82° |
| 2026-05-08 04:02 | 39.06462 | 121.43923 | 10702 ft | 313 kts | 92° |
| 2026-05-08 04:02 | 39.06202 | 121.46715 | 11413 ft | 316 kts | 92° |
| 2026-05-08 04:02 | 39.05957 | 121.49529 | 12160 ft | 318 kts | 91° |
| 2026-05-08 04:03 | 39.05680 | 121.52370 | 12887 ft | 324 kts | 99° |
| 2026-05-08 04:03 | 39.02917 | 121.56928 | 14264 ft | 339 kts | 155° |
| 2026-05-08 04:03 | 39.00656 | 121.57665 | 14864 ft | 336 kts | 183° |
| 2026-05-08 04:04 | 38.98328 | 121.57482 | 15497 ft | 337 kts | 190° |
| 2026-05-08 04:04 | 38.96043 | 121.56882 | 16053 ft | 334 kts | 210° |
| 2026-05-08 04:04 | 38.94050 | 121.55309 | 16276 ft | 344 kts | 221° |
| 2026-05-08 04:04 | 38.92037 | 121.53483 | 16400 ft | 364 kts | 221° |
| 2026-05-08 04:05 | 38.89901 | 121.51598 | 16512 ft | 382 kts | 219° |
| 2026-05-08 04:05 | 38.87649 | 121.49645 | 16648 ft | 399 kts | 219° |
| 2026-05-08 04:05 | 38.85286 | 121.47639 | 16767 ft | 415 kts | 218° |
| 2026-05-08 04:05 | 38.82832 | 121.45567 | 16932 ft | 429 kts | 218° |
| 2026-05-08 04:06 | 38.80316 | 121.43450 | 17342 ft | 434 kts | 218° |
| 2026-05-08 04:06 | 38.77786 | 121.41321 | 17891 ft | 436 kts | 218° |
| 2026-05-08 04:06 | 38.75248 | 121.39183 | 18450 ft | 438 kts | 218° |
| 2026-05-08 04:06 | 38.72697 | 121.37030 | 18897 ft | 440 kts | 219° |
| 2026-05-08 04:07 | 38.70131 | 121.34864 | 19326 ft | 443 kts | 219° |
| 2026-05-08 04:07 | 38.67549 | 121.32687 | 19764 ft | 446 kts | 219° |
| 2026-05-08 04:07 | 38.64955 | 121.30499 | 20200 ft | 448 kts | 219° |
| 2026-05-08 04:07 | 38.62353 | 121.28300 | 20629 ft | 450 kts | 220° |
| 2026-05-08 04:08 | 38.59745 | 121.26071 | 21031 ft | 450 kts | 223° |
| 2026-05-08 04:08 | 38.57573 | 121.23302 | 21374 ft | 434 kts | 243° |
| 2026-05-08 04:08 | 38.56304 | 121.19901 | 21877 ft | 418 kts | 259° |
| 2026-05-08 04:08 | 38.55718 | 121.16310 | 22333 ft | 410 kts | 270° |
| 2026-05-08 04:09 | 38.55779 | 121.12717 | 22712 ft | 403 kts | 283° |
| 2026-05-08 04:09 | 38.56326 | 121.09211 | 23133 ft | 402 kts | 286° |
| 2026-05-08 04:09 | 38.56934 | 121.05729 | 23546 ft | 402 kts | 287° |
| 2026-05-08 04:09 | 38.57550 | 121.02240 | 23911 ft | 403 kts | 287° |
| 2026-05-08 04:10 | 38.58158 | 120.98742 | 24221 ft | 404 kts | 286° |
| 2026-05-08 04:10 | 38.58757 | 120.95225 | 24503 ft | 405 kts | 286° |
| 2026-05-08 04:10 | 38.59349 | 120.91692 | 24795 ft | 407 kts | 285° |
| 2026-05-08 04:10 | 38.59926 | 120.88201 | 25084 ft | 408 kts | 285° |
| 2026-05-08 04:11 | 38.60510 | 120.84650 | 25372 ft | 409 kts | 285° |
| 2026-05-08 04:11 | 38.61094 | 120.81088 | 25664 ft | 409 kts | 285° |
| 2026-05-08 04:11 | 38.61674 | 120.77532 | 26064 ft | 407 kts | 285° |
| 2026-05-08 04:11 | 38.62249 | 120.74007 | 26528 ft | 404 kts | 285° |
| 2026-05-08 04:12 | 38.62819 | 120.70505 | 26976 ft | 401 kts | 285° |
| 2026-05-08 04:12 | 38.63385 | 120.67026 | 27377 ft | 399 kts | 285° |
| 2026-05-08 04:12 | 38.63949 | 120.63560 | 27770 ft | 398 kts | 284° |
| 2026-05-08 04:12 | 38.64510 | 120.60100 | 28178 ft | 396 kts | 284° |
| 2026-05-08 04:13 | 38.65069 | 120.56663 | 28625 ft | 393 kts | 284° |
| 2026-05-08 04:13 | 38.65632 | 120.53254 | 29060 ft | 391 kts | 284° |
| 2026-05-08 04:13 | 38.66196 | 120.49858 | 29449 ft | 390 kts | 284° |
| 2026-05-08 04:13 | 38.66759 | 120.46465 | 29766 ft | 390 kts | 284° |
| 2026-05-08 04:14 | 38.67322 | 120.43065 | 30053 ft | 390 kts | 284° |
| 2026-05-08 04:14 | 38.67882 | 120.39670 | 30245 ft | 391 kts | 284° |
| 2026-05-08 04:14 | 38.69719 | 120.33125 | 30247 ft | 391 kts | 297° |
| 2026-05-08 04:15 | 38.72532 | 120.27200 | 30254 ft | 389 kts | 301° |
| 2026-05-08 04:15 | 38.75412 | 120.21321 | 30250 ft | 389 kts | 301° |
| 2026-05-08 04:16 | 38.78195 | 120.15602 | 30251 ft | 389 kts | 301° |
| 2026-05-08 04:16 | 38.81049 | 120.09709 | 30234 ft | 389 kts | 301° |
| 2026-05-08 04:17 | 38.83896 | 120.03813 | 30252 ft | 389 kts | 301° |
| 2026-05-08 04:17 | 38.86694 | 119.98004 | 30252 ft | 390 kts | 301° |
| 2026-05-08 04:18 | 38.89549 | 119.92068 | 30250 ft | 391 kts | 301° |
| 2026-05-08 04:18 | 38.92400 | 119.86128 | 30250 ft | 391 kts | 301° |
| 2026-05-08 04:19 | 38.95252 | 119.80176 | 30237 ft | 392 kts | 301° |
| 2026-05-08 04:19 | 38.98106 | 119.74208 | 30246 ft | 392 kts | 301° |
| 2026-05-08 04:20 | 39.00962 | 119.68225 | 30247 ft | 393 kts | 301° |
| 2026-05-08 04:20 | 39.03816 | 119.62234 | 30246 ft | 393 kts | 300° |
| 2026-05-08 04:21 | 39.06665 | 119.56243 | 30240 ft | 393 kts | 300° |
| 2026-05-08 04:21 | 39.09516 | 119.50238 | 30253 ft | 394 kts | 300° |
| 2026-05-08 04:22 | 39.12353 | 119.44250 | 30243 ft | 395 kts | 300° |
| 2026-05-08 04:22 | 39.15212 | 119.38204 | 30238 ft | 395 kts | 300° |
| 2026-05-08 04:23 | 39.18085 | 119.32115 | 30236 ft | 395 kts | 300° |
| 2026-05-08 04:23 | 39.20914 | 119.26110 | 30236 ft | 395 kts | 300° |
| 2026-05-08 04:24 | 39.23764 | 119.20048 | 30230 ft | 395 kts | 300° |
| 2026-05-08 04:24 | 39.26614 | 119.13974 | 30234 ft | 396 kts | 300° |
| 2026-05-08 04:25 | 39.29462 | 119.07894 | 30229 ft | 396 kts | 300° |
| 2026-05-08 04:25 | 39.32308 | 119.01806 | 30227 ft | 396 kts | 300° |
| 2026-05-08 04:26 | 39.35152 | 118.95710 | 30217 ft | 396 kts | 300° |
| 2026-05-08 04:26 | 39.37994 | 118.89606 | 30228 ft | 397 kts | 300° |
| 2026-05-08 04:27 | 39.40839 | 118.83486 | 30221 ft | 397 kts | 300° |
| 2026-05-08 04:27 | 39.43677 | 118.77367 | 30217 ft | 397 kts | 300° |
| 2026-05-08 04:28 | 39.46514 | 118.71239 | 30211 ft | 397 kts | 300° |
| 2026-05-08 04:28 | 39.49348 | 118.65104 | 30188 ft | 397 kts | 300° |
| 2026-05-08 04:29 | 39.52181 | 118.58961 | 30210 ft | 398 kts | 300° |
| 2026-05-08 04:29 | 39.55016 | 118.52801 | 30211 ft | 398 kts | 300° |
| 2026-05-08 04:30 | 39.57831 | 118.46673 | 30206 ft | 398 kts | 300° |
| 2026-05-08 04:30 | 39.60199 | 118.41508 | 30204 ft | 399 kts | 300° |
| 2026-05-08 04:31 | 39.63473 | 118.34355 | 30191 ft | 399 kts | 300° |
| 2026-05-08 04:31 | 39.66306 | 118.28150 | 30201 ft | 400 kts | 300° |
| 2026-05-08 04:32 | 39.68678 | 118.22946 | 30200 ft | 400 kts | 300° |
| 2026-05-08 04:32 | 39.71508 | 118.16726 | 30198 ft | 400 kts | 300° |
| 2026-05-08 04:33 | 39.74335 | 118.10499 | 30198 ft | 400 kts | 300° |
| 2026-05-08 04:33 | 39.75762 | 118.07352 | 29472 ft | 407 kts | 300° |
| 2026-05-08 04:33 | 39.77190 | 118.04199 | 28722 ft | 402 kts | 301° |
| 2026-05-08 04:34 | 39.78606 | 118.01069 | 27889 ft | 401 kts | 301° |
| 2026-05-08 04:34 | 39.80017 | 117.97947 | 27022 ft | 402 kts | 301° |
| 2026-05-08 04:34 | 39.81435 | 117.94807 | 26133 ft | 403 kts | 301° |
| 2026-05-08 04:34 | 39.82847 | 117.91677 | 25515 ft | 398 kts | 302° |
| 2026-05-08 04:35 | 39.84243 | 117.88577 | 24863 ft | 395 kts | 302° |
| 2026-05-08 04:35 | 39.85626 | 117.85505 | 24248 ft | 392 kts | 302° |
| 2026-05-08 04:35 | 39.86996 | 117.82458 | 23607 ft | 389 kts | 302° |
| 2026-05-08 04:35 | 39.88360 | 117.79424 | 22897 ft | 387 kts | 302° |
| 2026-05-08 04:36 | 39.89708 | 117.76419 | 22234 ft | 383 kts | 302° |
| 2026-05-08 04:36 | 39.91043 | 117.73443 | 21614 ft | 379 kts | 302° |
| 2026-05-08 04:36 | 39.92371 | 117.70479 | 20996 ft | 377 kts | 302° |
| 2026-05-08 04:36 | 39.93684 | 117.67545 | 20397 ft | 373 kts | 302° |
| 2026-05-08 04:37 | 39.94992 | 117.64620 | 19804 ft | 376 kts | 302° |
| 2026-05-08 04:37 | 39.96329 | 117.61632 | 19194 ft | 386 kts | 302° |
| 2026-05-08 04:37 | 39.97660 | 117.58653 | 18591 ft | 384 kts | 302° |
| 2026-05-08 04:37 | 39.98995 | 117.55656 | 17902 ft | 381 kts | 302° |
| 2026-05-08 04:38 | 40.00318 | 117.52684 | 17248 ft | 376 kts | 302° |
| 2026-05-08 04:38 | 40.01623 | 117.49750 | 16625 ft | 372 kts | 302° |
| 2026-05-08 04:38 | 40.02911 | 117.46853 | 16031 ft | 367 kts | 301° |
| 2026-05-08 04:38 | 40.04183 | 117.43990 | 15435 ft | 363 kts | 301° |
| 2026-05-08 04:39 | 40.05439 | 117.41160 | 14858 ft | 359 kts | 301° |
| 2026-05-08 04:39 | 40.06681 | 117.38359 | 14287 ft | 355 kts | 301° |
| 2026-05-08 04:39 | 40.07911 | 117.35586 | 13706 ft | 351 kts | 301° |
| 2026-05-08 04:39 | 40.09128 | 117.32837 | 13073 ft | 348 kts | 301° |
| 2026-05-08 04:40 | 40.10330 | 117.30118 | 12486 ft | 344 kts | 300° |
| 2026-05-08 04:40 | 40.11517 | 117.27428 | 11934 ft | 341 kts | 301° |
| 2026-05-08 04:40 | 40.12698 | 117.24752 | 11423 ft | 339 kts | 301° |
| 2026-05-08 04:40 | 40.13854 | 117.22129 | 11285 ft | 328 kts | 301° |
| 2026-05-08 04:41 | 40.14977 | 117.19579 | 11112 ft | 320 kts | 301° |
| 2026-05-08 04:41 | 40.16083 | 117.17068 | 10914 ft | 318 kts | 300° |
| 2026-05-08 04:41 | 40.17178 | 117.14584 | 10764 ft | 312 kts | 300° |
| 2026-05-08 04:41 | 40.18243 | 117.12161 | 10627 ft | 302 kts | 300° |
| 2026-05-08 04:42 | 40.19271 | 117.09819 | 10492 ft | 292 kts | 300° |
| 2026-05-08 04:42 | 40.20162 | 117.07482 | 10356 ft | 284 kts | 287° |
| 2026-05-08 04:42 | 40.20301 | 117.04953 | 10255 ft | 278 kts | 266° |
| 2026-05-08 04:42 | 40.20016 | 117.02488 | 10141 ft | 270 kts | 263° |
| 2026-05-08 04:43 | 40.19687 | 117.00108 | 10043 ft | 262 kts | 262° |
| 2026-05-08 04:43 | 40.19358 | 116.97800 | 9944 ft | 254 kts | 262° |
| 2026-05-08 04:43 | 40.19031 | 116.95544 | 9745 ft | 250 kts | 262° |
| 2026-05-08 04:43 | 40.18713 | 116.93333 | 9556 ft | 245 kts | 262° |
| 2026-05-08 04:44 | 40.18399 | 116.91159 | 9372 ft | 241 kts | 262° |
| 2026-05-08 04:44 | 40.18089 | 116.88995 | 9033 ft | 245 kts | 262° |
| 2026-05-08 04:44 | 40.17781 | 116.86785 | 8647 ft | 249 kts | 262° |
| 2026-05-08 04:44 | 40.17486 | 116.84560 | 8404 ft | 247 kts | 262° |
| 2026-05-08 04:45 | 40.17204 | 116.82360 | 8112 ft | 245 kts | 262° |
| 2026-05-08 04:45 | 40.16930 | 116.80159 | 7677 ft | 245 kts | 262° |
| 2026-05-08 04:45 | 40.16671 | 116.77955 | 7225 ft | 246 kts | 262° |
| 2026-05-08 04:45 | 40.16425 | 116.75750 | 6972 ft | 239 kts | 262° |
| 2026-05-08 04:46 | 40.16201 | 116.73654 | 6885 ft | 227 kts | 262° |
| 2026-05-08 04:46 | 40.15992 | 116.71670 | 6794 ft | 213 kts | 262° |
| 2026-05-08 04:46 | 40.15806 | 116.69832 | 6700 ft | 197 kts | 262° |
| 2026-05-08 04:46 | 40.15641 | 116.68147 | 6554 ft | 182 kts | 262° |
| 2026-05-08 04:47 | 40.15486 | 116.66525 | 6233 ft | 174 kts | 262° |
| 2026-05-08 04:47 | 40.15347 | 116.64949 | 5764 ft | 176 kts | 264° |
| 2026-05-08 04:47 | 40.15541 | 116.63399 | 5337 ft | 175 kts | 292° |
| 2026-05-08 04:47 | 40.16290 | 116.62094 | 4708 ft | 184 kts | 307° |
| 2026-05-08 04:48 | 40.16732 | 116.60657 | 4203 ft | 173 kts | 268° |
| 2026-05-08 04:48 | 40.16294 | 116.59225 | 3532 ft | 172 kts | 221° |
| 2026-05-08 04:48 | 40.15224 | 116.58746 | 2908 ft | 171 kts | 168° |
| 2026-05-08 04:48 | 40.14228 | 116.59515 | 2467 ft | 166 kts | 137° |
| 2026-05-08 04:49 | 40.13447 | 116.60615 | 2104 ft | 162 kts | 141° |
| 2026-05-08 04:49 | 40.12455 | 116.61140 | 1745 ft | 157 kts | 183° |
| 2026-05-08 04:49 | 40.11430 | 116.60608 | 1206 ft | 163 kts | 192° |
| 2026-05-08 04:49 | 40.10345 | 116.60920 | 629 ft | 164 kts | 156° |
| 2026-05-08 04:50 | 40.09251 | 116.61249 | 161 ft | 159 kts | 175° |
| 2026-05-08 04:50 | 40.08262 | 116.61398 | 122 ft | 124 kts | 173° |
| 2026-05-08 04:50 | 40.07618 | 116.61497 | 121 ft | 62 kts | 174° |
| 2026-05-08 04:50 | 40.07396 | 116.61517 | 122 ft | 11 kts | 185° |
| 2026-05-08 04:51 | 40.07276 | 116.61483 | 122 ft | 25 kts | 199° |
| 2026-05-08 04:51 | 40.07111 | 116.61395 | 122 ft | 25 kts | 202° |
| 2026-05-08 04:51 | 40.06947 | 116.61364 | 121 ft | 23 kts | 171° |
| 2026-05-08 04:51 | 40.06790 | 116.61391 | 120 ft | 23 kts | 173° |
| 2026-05-08 04:52 | 40.06638 | 116.61414 | 119 ft | 22 kts | 173° |
| 2026-05-08 04:52 | 40.06489 | 116.61438 | 120 ft | 21 kts | 173° |
| 2026-05-08 04:52 | 40.06373 | 116.61383 | 121 ft | 20 kts | 258° |
| 2026-05-08 04:52 | 40.06355 | 116.61205 | 121 ft | 19 kts | 262° |
| 2026-05-08 04:53 | 40.06289 | 116.61081 | 121 ft | 19 kts | 182° |
| 2026-05-08 04:53 | 40.06161 | 116.61097 | 121 ft | 18 kts | 172° |
| 2026-05-08 04:53 | 40.06038 | 116.61117 | 119 ft | 18 kts | 172° |
| 2026-05-08 04:53 | 40.05981 | 116.61043 | 121 ft | 10 kts | 256° |
| 2026-05-08 04:54 | 40.05966 | 116.60992 | 121 ft | 0 kts | 243° |
| 2026-05-08 04:54 | 40.05964 | 116.60988 | 121 ft | 1 kts | 243° |
| 2026-05-08 04:54 | 40.05963 | 116.60985 | 121 ft | 0 kts | 243° |